sensor_id;sensor_type;location;lat;lon;timestamp;pressure;altitude;pressure_sealevel;temperature;humidity
40850;BME280;26571;41.610;25.380;2023-06-04T00:02:01;98405.84;;;20.24;94.26
40850;BME280;26571;41.610;25.380;2023-06-04T00:04:26;98408.44;;;20.30;93.71
40850;BME280;26571;41.610;25.380;2023-06-04T00:06:52;98404.84;;;20.25;93.71
40850;BME280;26571;41.610;25.380;2023-06-04T00:09:17;98410.75;;;20.27;92.69
40850;BME280;26571;41.610;25.380;2023-06-04T00:11:43;98416.09;;;20.27;92.02
40850;BME280;26571;41.610;25.380;2023-06-04T00:14:10;98414.47;;;20.26;90.89
40850;BME280;26571;41.610;25.380;2023-06-04T00:16:36;98421.88;;;20.24;90.71
40850;BME280;26571;41.610;25.380;2023-06-04T00:19:02;98418.66;;;20.22;89.61
40850;BME280;26571;41.610;25.380;2023-06-04T00:21:28;98418.78;;;20.27;87.31
40850;BME280;26571;41.610;25.380;2023-06-04T00:23:53;98415.72;;;20.23;86.08
40850;BME280;26571;41.610;25.380;2023-06-04T00:26:19;98422.38;;;20.21;83.78
40850;BME280;26571;41.610;25.380;2023-06-04T00:28:45;98423.28;;;20.14;81.18
40850;BME280;26571;41.610;25.380;2023-06-04T00:31:10;98429.44;;;20.15;80.38
40850;BME280;26571;41.610;25.380;2023-06-04T00:33:37;98430.94;;;20.11;78.07
40850;BME280;26571;41.610;25.380;2023-06-04T00:36:03;98439.19;;;20.09;75.96
40850;BME280;26571;41.610;25.380;2023-06-04T00:38:29;98415.50;;;19.83;76.12
40850;BME280;26571;41.610;25.380;2023-06-04T00:40:54;98442.31;;;20.06;75.31
40850;BME280;26571;41.610;25.380;2023-06-04T00:43:20;98441.06;;;20.09;74.91
40850;BME280;26571;41.610;25.380;2023-06-04T00:45:45;98418.69;;;20.03;74.83
40850;BME280;26571;41.610;25.380;2023-06-04T00:48:11;98402.25;;;19.88;74.41
40850;BME280;26571;41.610;25.380;2023-06-04T00:50:36;98386.22;;;19.88;74.65
40850;BME280;26571;41.610;25.380;2023-06-04T00:53:03;98429.66;;;20.13;75.56
40850;BME280;26571;41.610;25.380;2023-06-04T00:55:30;98423.22;;;20.03;77.80
40850;BME280;26571;41.610;25.380;2023-06-04T00:57:56;98423.03;;;20.04;79.66
40850;BME280;26571;41.610;25.380;2023-06-04T01:00:22;98412.50;;;19.91;81.19
40850;BME280;26571;41.610;25.380;2023-06-04T01:02:49;98420.66;;;19.96;82.86
40850;BME280;26571;41.610;25.380;2023-06-04T01:05:26;98421.59;;;20.02;83.89
40850;BME280;26571;41.610;25.380;2023-06-04T01:07:54;98416.50;;;20.00;84.86
40850;BME280;26571;41.610;25.380;2023-06-04T01:10:21;98418.13;;;20.01;85.05
40850;BME280;26571;41.610;25.380;2023-06-04T01:12:47;98409.88;;;20.03;85.77
40850;BME280;26571;41.610;25.380;2023-06-04T01:15:12;98417.88;;;20.03;85.66
40850;BME280;26571;41.610;25.380;2023-06-04T01:17:42;98420.22;;;19.99;86.04
40850;BME280;26571;41.610;25.380;2023-06-04T01:22:43;98404.09;;;19.76;86.32
40850;BME280;26571;41.610;25.380;2023-06-04T01:25:16;98419.25;;;19.94;86.37
40850;BME280;26571;41.610;25.380;2023-06-04T01:27:49;98406.28;;;19.79;86.46
40850;BME280;26571;41.610;25.380;2023-06-04T01:30:19;98421.56;;;19.90;86.54
40850;BME280;26571;41.610;25.380;2023-06-04T01:32:45;98421.19;;;19.86;87.04
40850;BME280;26571;41.610;25.380;2023-06-04T01:35:12;98418.75;;;19.85;87.04
40850;BME280;26571;41.610;25.380;2023-06-04T01:37:37;98420.38;;;19.86;86.71
40850;BME280;26571;41.610;25.380;2023-06-04T01:40:03;98417.59;;;19.81;87.28
40850;BME280;26571;41.610;25.380;2023-06-04T01:42:30;98419.66;;;19.79;87.59
40850;BME280;26571;41.610;25.380;2023-06-04T01:44:56;98420.56;;;19.73;87.74
40850;BME280;26571;41.610;25.380;2023-06-04T01:47:21;98417.88;;;19.73;87.54
40850;BME280;26571;41.610;25.380;2023-06-04T01:49:47;98420.41;;;19.68;87.93
40850;BME280;26571;41.610;25.380;2023-06-04T01:52:12;98422.50;;;19.66;87.96
40850;BME280;26571;41.610;25.380;2023-06-04T01:54:38;98433.19;;;19.66;87.75
40850;BME280;26571;41.610;25.380;2023-06-04T01:57:04;98447.59;;;19.65;87.29
40850;BME280;26571;41.610;25.380;2023-06-04T01:59:30;98439.59;;;19.65;86.92
40850;BME280;26571;41.610;25.380;2023-06-04T02:01:57;98444.47;;;19.68;85.62
40850;BME280;26571;41.610;25.380;2023-06-04T02:04:22;98450.25;;;19.65;85.21
40850;BME280;26571;41.610;25.380;2023-06-04T02:06:50;98468.13;;;19.64;84.47
40850;BME280;26571;41.610;25.380;2023-06-04T02:09:15;98424.28;;;19.35;83.66
40850;BME280;26571;41.610;25.380;2023-06-04T02:11:41;98463.00;;;19.62;82.61
40850;BME280;26571;41.610;25.380;2023-06-04T02:14:06;98470.47;;;19.54;82.72
40850;BME280;26571;41.610;25.380;2023-06-04T02:16:31;98463.50;;;19.53;83.67
40850;BME280;26571;41.610;25.380;2023-06-04T02:18:57;98461.97;;;19.45;83.96
40850;BME280;26571;41.610;25.380;2023-06-04T02:21:24;98475.47;;;19.50;83.78
40850;BME280;26571;41.610;25.380;2023-06-04T02:23:49;98484.72;;;19.48;83.06
40850;BME280;26571;41.610;25.380;2023-06-04T02:26:15;98479.44;;;19.41;83.71
40850;BME280;26571;41.610;25.380;2023-06-04T02:28:41;98483.31;;;19.45;83.71
40850;BME280;26571;41.610;25.380;2023-06-04T02:31:06;98479.22;;;19.43;84.41
40850;BME280;26571;41.610;25.380;2023-06-04T02:33:31;98482.72;;;19.43;83.85
40850;BME280;26571;41.610;25.380;2023-06-04T02:35:57;98484.34;;;19.44;82.57
40850;BME280;26571;41.610;25.380;2023-06-04T02:38:22;98491.59;;;19.37;82.66
40850;BME280;26571;41.610;25.380;2023-06-04T02:40:48;98500.34;;;19.44;82.02
40850;BME280;26571;41.610;25.380;2023-06-04T02:43:13;98489.38;;;19.34;81.83
40850;BME280;26571;41.610;25.380;2023-06-04T02:45:39;98481.50;;;19.21;81.88
40850;BME280;26571;41.610;25.380;2023-06-04T02:48:04;98475.38;;;19.20;81.54
40850;BME280;26571;41.610;25.380;2023-06-04T02:50:30;98492.50;;;19.31;80.85
40850;BME280;26571;41.610;25.380;2023-06-04T02:52:55;98497.03;;;19.30;80.93
40850;BME280;26571;41.610;25.380;2023-06-04T02:55:21;98499.53;;;19.25;81.36
40850;BME280;26571;41.610;25.380;2023-06-04T02:57:46;98499.53;;;19.25;81.18
40850;BME280;26571;41.610;25.380;2023-06-04T03:00:13;98507.53;;;19.25;80.95
40850;BME280;26571;41.610;25.380;2023-06-04T03:02:42;98507.03;;;19.35;80.92
40850;BME280;26571;41.610;25.380;2023-06-04T03:05:09;98504.56;;;19.33;80.56
40850;BME280;26571;41.610;25.380;2023-06-04T03:07:39;98480.69;;;19.20;80.79
40850;BME280;26571;41.610;25.380;2023-06-04T03:10:06;98509.09;;;19.33;81.02
40850;BME280;26571;41.610;25.380;2023-06-04T03:12:32;98508.13;;;19.27;81.60
40850;BME280;26571;41.610;25.380;2023-06-04T03:14:58;98508.28;;;19.32;81.42
40850;BME280;26571;41.610;25.380;2023-06-04T03:17:23;98512.28;;;19.23;81.92
40850;BME280;26571;41.610;25.380;2023-06-04T03:19:48;98508.13;;;19.27;81.99
40850;BME280;26571;41.610;25.380;2023-06-04T03:22:14;98484.31;;;19.07;82.57
40850;BME280;26571;41.610;25.380;2023-06-04T03:24:40;98509.84;;;19.22;82.92
40850;BME280;26571;41.610;25.380;2023-06-04T03:27:09;98510.06;;;19.20;82.36
40850;BME280;26571;41.610;25.380;2023-06-04T03:29:36;98509.03;;;19.21;81.39
40850;BME280;26571;41.610;25.380;2023-06-04T03:32:02;98516.78;;;19.23;80.73
40850;BME280;26571;41.610;25.380;2023-06-04T03:34:27;98476.13;;;19.02;80.25
40850;BME280;26571;41.610;25.380;2023-06-04T03:36:56;98517.56;;;19.30;78.67
40850;BME280;26571;41.610;25.380;2023-06-04T03:39:22;98521.69;;;19.26;77.61
40850;BME280;26571;41.610;25.380;2023-06-04T03:41:48;98527.63;;;19.28;77.34
40850;BME280;26571;41.610;25.380;2023-06-04T03:44:14;98522.53;;;19.26;77.06
40850;BME280;26571;41.610;25.380;2023-06-04T03:46:41;98523.34;;;19.27;75.48
40850;BME280;26571;41.610;25.380;2023-06-04T03:49:06;98527.03;;;19.26;75.72
40850;BME280;26571;41.610;25.380;2023-06-04T03:51:32;98526.59;;;19.29;75.94
40850;BME280;26571;41.610;25.380;2023-06-04T03:53:58;98534.25;;;19.44;73.60
40850;BME280;26571;41.610;25.380;2023-06-04T03:56:24;98532.56;;;19.49;73.49
40850;BME280;26571;41.610;25.380;2023-06-04T03:58:52;98534.19;;;19.50;73.34
40850;BME280;26571;41.610;25.380;2023-06-04T04:01:17;98497.03;;;19.30;72.99
40850;BME280;26571;41.610;25.380;2023-06-04T04:03:43;98531.31;;;19.52;73.81
40850;BME280;26571;41.610;25.380;2023-06-04T04:06:09;98538.66;;;19.56;75.37
40850;BME280;26571;41.610;25.380;2023-06-04T04:08:35;98548.47;;;19.62;75.57
40850;BME280;26571;41.610;25.380;2023-06-04T04:11:02;98553.97;;;19.68;75.38
40850;BME280;26571;41.610;25.380;2023-06-04T04:13:28;98551.66;;;19.71;75.63
40850;BME280;26571;41.610;25.380;2023-06-04T04:15:53;98556.50;;;19.81;76.11
40850;BME280;26571;41.610;25.380;2023-06-04T04:18:22;98553.75;;;19.87;76.85
40850;BME280;26571;41.610;25.380;2023-06-04T04:20:47;98436.44;;;19.13;76.95
40850;BME280;26571;41.610;25.380;2023-06-04T04:23:13;98560.00;;;20.00;77.04
40850;BME280;26571;41.610;25.380;2023-06-04T04:25:38;98566.72;;;20.02;76.29
40850;BME280;26571;41.610;25.380;2023-06-04T04:28:05;98568.16;;;20.05;75.96
40850;BME280;26571;41.610;25.380;2023-06-04T04:30:34;98571.78;;;20.10;75.79
40850;BME280;26571;41.610;25.380;2023-06-04T04:33:00;98563.53;;;20.12;75.70
40850;BME280;26571;41.610;25.380;2023-06-04T04:35:26;98564.28;;;20.19;75.43
40850;BME280;26571;41.610;25.380;2023-06-04T04:37:51;98564.84;;;20.21;76.00
40850;BME280;26571;41.610;25.380;2023-06-04T04:40:17;98567.44;;;20.28;76.15
40850;BME280;26571;41.610;25.380;2023-06-04T04:42:42;98580.50;;;20.36;76.83
40850;BME280;26571;41.610;25.380;2023-06-04T04:45:08;98581.19;;;20.50;77.25
40850;BME280;26571;41.610;25.380;2023-06-04T04:47:34;98579.59;;;20.60;77.02
40850;BME280;26571;41.610;25.380;2023-06-04T04:49:59;98571.81;;;20.71;76.75
40850;BME280;26571;41.610;25.380;2023-06-04T04:52:25;98577.88;;;20.78;76.65
40850;BME280;26571;41.610;25.380;2023-06-04T04:54:50;98578.97;;;20.88;76.27
40850;BME280;26571;41.610;25.380;2023-06-04T04:57:17;98588.53;;;20.96;75.97
40850;BME280;26571;41.610;25.380;2023-06-04T04:59:42;98587.59;;;21.02;75.99
40850;BME280;26571;41.610;25.380;2023-06-04T05:02:08;98585.66;;;21.09;75.68
40850;BME280;26571;41.610;25.380;2023-06-04T05:04:33;98589.16;;;21.22;75.77
40850;BME280;26571;41.610;25.380;2023-06-04T05:06:58;98497.25;;;20.62;75.51
40850;BME280;26571;41.610;25.380;2023-06-04T05:09:24;98595.38;;;21.34;75.83
40850;BME280;26571;41.610;25.380;2023-06-04T05:11:49;98596.06;;;21.41;75.77
40850;BME280;26571;41.610;25.380;2023-06-04T05:14:15;98600.16;;;21.55;76.13
40850;BME280;26571;41.610;25.380;2023-06-04T05:16:41;98608.31;;;21.60;75.49
40850;BME280;26571;41.610;25.380;2023-06-04T05:19:06;98594.78;;;21.55;75.63
40850;BME280;26571;41.610;25.380;2023-06-04T05:21:31;98608.19;;;21.67;75.66
40850;BME280;26571;41.610;25.380;2023-06-04T05:23:57;98603.84;;;21.78;74.56
40850;BME280;26571;41.610;25.380;2023-06-04T05:26:22;98605.34;;;21.97;72.65
40850;BME280;26571;41.610;25.380;2023-06-04T05:28:50;98610.13;;;22.18;71.11
40850;BME280;26571;41.610;25.380;2023-06-04T05:31:16;98611.13;;;22.41;70.53
40850;BME280;26571;41.610;25.380;2023-06-04T05:33:43;98619.00;;;22.59;68.35
40850;BME280;26571;41.610;25.380;2023-06-04T05:36:09;98621.53;;;22.66;68.07
40850;BME280;26571;41.610;25.380;2023-06-04T05:38:34;98617.84;;;22.84;67.10
40850;BME280;26571;41.610;25.380;2023-06-04T05:41:01;98623.88;;;22.91;65.28
40850;BME280;26571;41.610;25.380;2023-06-04T05:43:27;98628.78;;;22.94;64.48
40850;BME280;26571;41.610;25.380;2023-06-04T05:45:52;98636.63;;;23.12;63.80
40850;BME280;26571;41.610;25.380;2023-06-04T05:48:17;98634.84;;;23.18;62.13
40850;BME280;26571;41.610;25.380;2023-06-04T05:50:43;98641.59;;;23.20;61.00
40850;BME280;26571;41.610;25.380;2023-06-04T05:53:09;98646.41;;;23.18;61.15
40850;BME280;26571;41.610;25.380;2023-06-04T05:55:35;98649.56;;;23.15;60.38
40850;BME280;26571;41.610;25.380;2023-06-04T05:58:00;98649.63;;;23.04;59.69
40850;BME280;26571;41.610;25.380;2023-06-04T06:00:26;98649.28;;;23.00;60.61
40850;BME280;26571;41.610;25.380;2023-06-04T06:02:51;98656.75;;;22.69;62.24
40850;BME280;26571;41.610;25.380;2023-06-04T06:05:20;98667.22;;;22.83;61.11
40850;BME280;26571;41.610;25.380;2023-06-04T06:07:45;98662.63;;;22.55;61.60
40850;BME280;26571;41.610;25.380;2023-06-04T06:10:12;98620.28;;;22.16;60.81
40850;BME280;26571;41.610;25.380;2023-06-04T06:12:37;98659.44;;;22.17;61.65
40850;BME280;26571;41.610;25.380;2023-06-04T06:15:03;98656.66;;;22.24;60.84
40850;BME280;26571;41.610;25.380;2023-06-04T06:17:29;98660.03;;;22.19;61.00
40850;BME280;26571;41.610;25.380;2023-06-04T06:19:55;98669.13;;;22.18;59.99
40850;BME280;26571;41.610;25.380;2023-06-04T06:22:21;98663.78;;;22.18;60.23
40850;BME280;26571;41.610;25.380;2023-06-04T06:24:46;98623.31;;;21.85;61.54
40850;BME280;26571;41.610;25.380;2023-06-04T06:27:15;98666.66;;;22.05;62.77
40850;BME280;26571;41.610;25.380;2023-06-04T06:29:41;98529.88;;;21.06;63.33
40850;BME280;26571;41.610;25.380;2023-06-04T06:32:08;98686.47;;;21.81;64.10
40850;BME280;26571;41.610;25.380;2023-06-04T06:34:33;98669.13;;;21.72;65.20
40850;BME280;26571;41.610;25.380;2023-06-04T06:37:00;98671.44;;;21.56;66.05
40850;BME280;26571;41.610;25.380;2023-06-04T06:39:25;98678.16;;;21.47;66.96
40850;BME280;26571;41.610;25.380;2023-06-04T06:41:50;98688.19;;;21.40;67.39
40850;BME280;26571;41.610;25.380;2023-06-04T06:44:16;98684.47;;;21.41;67.21
40850;BME280;26571;41.610;25.380;2023-06-04T06:46:41;98687.25;;;21.46;67.79
40850;BME280;26571;41.610;25.380;2023-06-04T06:49:07;98671.63;;;21.43;66.93
40850;BME280;26571;41.610;25.380;2023-06-04T06:51:33;98691.81;;;21.57;66.73
40850;BME280;26571;41.610;25.380;2023-06-04T06:53:58;98695.53;;;21.56;65.53
40850;BME280;26571;41.610;25.380;2023-06-04T06:56:23;98713.47;;;21.56;65.92
40850;BME280;26571;41.610;25.380;2023-06-04T06:58:50;98701.38;;;21.65;65.64
40850;BME280;26571;41.610;25.380;2023-06-04T07:01:16;98707.44;;;21.72;65.89
40850;BME280;26571;41.610;25.380;2023-06-04T07:03:41;98607.44;;;21.25;65.62
40850;BME280;26571;41.610;25.380;2023-06-04T07:06:07;98713.84;;;21.83;66.35
40850;BME280;26571;41.610;25.380;2023-06-04T07:08:32;98711.66;;;21.91;66.85
40850;BME280;26571;41.610;25.380;2023-06-04T07:10:59;98658.50;;;21.77;65.86
40850;BME280;26571;41.610;25.380;2023-06-04T07:13:25;98714.47;;;22.08;66.07
40850;BME280;26571;41.610;25.380;2023-06-04T07:15:51;98693.22;;;22.07;65.92
40850;BME280;26571;41.610;25.380;2023-06-04T07:18:16;98703.19;;;22.18;63.96
40850;BME280;26571;41.610;25.380;2023-06-04T07:20:41;98706.19;;;22.22;63.18
40850;BME280;26571;41.610;25.380;2023-06-04T07:23:07;98705.25;;;22.28;62.78
40850;BME280;26571;41.610;25.380;2023-06-04T07:25:33;98709.59;;;22.29;61.87
40850;BME280;26571;41.610;25.380;2023-06-04T07:27:58;98712.94;;;22.36;59.02
40850;BME280;26571;41.610;25.380;2023-06-04T07:30:26;98699.44;;;22.31;59.66
40850;BME280;26571;41.610;25.380;2023-06-04T07:32:52;98717.41;;;22.18;59.65
40850;BME280;26571;41.610;25.380;2023-06-04T07:35:17;98710.50;;;22.23;60.13
40850;BME280;26571;41.610;25.380;2023-06-04T07:37:43;98717.03;;;22.27;60.76
40850;BME280;26571;41.610;25.380;2023-06-04T07:40:14;98724.63;;;22.30;60.66
40850;BME280;26571;41.610;25.380;2023-06-04T07:42:40;98714.25;;;22.33;60.00
40850;BME280;26571;41.610;25.380;2023-06-04T07:45:06;98730.78;;;22.42;58.66
40850;BME280;26571;41.610;25.380;2023-06-04T07:47:32;98723.31;;;22.44;55.73
40850;BME280;26571;41.610;25.380;2023-06-04T07:49:57;98717.25;;;22.49;55.25
40850;BME280;26571;41.610;25.380;2023-06-04T07:52:23;98725.72;;;22.57;55.81
40850;BME280;26571;41.610;25.380;2023-06-04T07:54:48;98717.78;;;22.62;55.17
40850;BME280;26571;41.610;25.380;2023-06-04T07:57:13;98698.44;;;22.60;54.91
40850;BME280;26571;41.610;25.380;2023-06-04T07:59:39;98727.22;;;22.88;54.34
40850;BME280;26571;41.610;25.380;2023-06-04T08:02:05;98730.31;;;22.97;51.57
40850;BME280;26571;41.610;25.380;2023-06-04T08:04:30;98733.19;;;23.07;50.04
40850;BME280;26571;41.610;25.380;2023-06-04T08:06:56;98732.81;;;23.15;49.88
40850;BME280;26571;41.610;25.380;2023-06-04T08:09:22;98729.97;;;23.22;49.44
40850;BME280;26571;41.610;25.380;2023-06-04T08:11:48;98726.63;;;23.43;49.45
40850;BME280;26571;41.610;25.380;2023-06-04T08:14:14;98724.75;;;23.61;50.96
40850;BME280;26571;41.610;25.380;2023-06-04T08:16:40;98718.34;;;23.79;50.84
40850;BME280;26571;41.610;25.380;2023-06-04T08:19:08;98725.59;;;24.12;49.97
40850;BME280;26571;41.610;25.380;2023-06-04T08:21:34;98734.84;;;24.38;48.92
40850;BME280;26571;41.610;25.380;2023-06-04T08:23:59;98734.44;;;24.68;45.57
40850;BME280;26571;41.610;25.380;2023-06-04T08:26:25;98740.25;;;24.82;45.21
40850;BME280;26571;41.610;25.380;2023-06-04T08:28:52;98717.00;;;24.97;47.23
40850;BME280;26571;41.610;25.380;2023-06-04T08:31:17;98744.22;;;25.50;44.22
40850;BME280;26571;41.610;25.380;2023-06-04T08:33:46;98744.59;;;25.59;42.63
40850;BME280;26571;41.610;25.380;2023-06-04T08:36:11;98745.13;;;25.61;42.92
40850;BME280;26571;41.610;25.380;2023-06-04T08:38:37;98740.78;;;25.82;44.04
40850;BME280;26571;41.610;25.380;2023-06-04T08:41:19;98733.31;;;25.94;43.49
40850;BME280;26571;41.610;25.380;2023-06-04T08:43:47;98731.59;;;25.83;43.92
40850;BME280;26571;41.610;25.380;2023-06-04T08:46:15;98741.94;;;25.91;43.80
40850;BME280;26571;41.610;25.380;2023-06-04T08:48:43;98744.34;;;25.92;44.21
40850;BME280;26571;41.610;25.380;2023-06-04T08:51:10;98745.00;;;26.10;43.89
40850;BME280;26571;41.610;25.380;2023-06-04T08:53:36;98746.13;;;26.14;43.40
40850;BME280;26571;41.610;25.380;2023-06-04T08:56:02;98746.53;;;26.38;44.34
40850;BME280;26571;41.610;25.380;2023-06-04T08:58:31;98746.00;;;26.36;43.66
40850;BME280;26571;41.610;25.380;2023-06-04T09:01:00;98739.34;;;26.06;43.18
40850;BME280;26571;41.610;25.380;2023-06-04T09:03:28;98744.66;;;25.96;44.28
40850;BME280;26571;41.610;25.380;2023-06-04T09:05:55;98740.97;;;25.75;44.51
40850;BME280;26571;41.610;25.380;2023-06-04T09:08:21;98746.28;;;25.70;44.49
40850;BME280;26571;41.610;25.380;2023-06-04T09:10:49;98739.91;;;25.49;44.90
40850;BME280;26571;41.610;25.380;2023-06-04T09:13:18;98749.03;;;25.43;46.32
40850;BME280;26571;41.610;25.380;2023-06-04T09:15:44;98741.22;;;25.41;46.49
40850;BME280;26571;41.610;25.380;2023-06-04T09:18:09;98739.72;;;25.29;47.82
40850;BME280;26571;41.610;25.380;2023-06-04T09:20:34;98749.03;;;25.43;48.36
40850;BME280;26571;41.610;25.380;2023-06-04T09:23:00;98750.06;;;25.69;48.32
40850;BME280;26571;41.610;25.380;2023-06-04T09:25:27;98739.00;;;25.97;46.79
40850;BME280;26571;41.610;25.380;2023-06-04T09:28:05;98738.34;;;26.22;48.39
40850;BME280;26571;41.610;25.380;2023-06-04T09:30:31;98735.16;;;26.30;47.42
40850;BME280;26571;41.610;25.380;2023-06-04T09:33:06;98734.63;;;26.34;46.85
40850;BME280;26571;41.610;25.380;2023-06-04T09:35:31;98735.03;;;26.10;46.00
40850;BME280;26571;41.610;25.380;2023-06-04T09:37:57;98738.44;;;25.95;48.28
40850;BME280;26571;41.610;25.380;2023-06-04T09:40:23;98731.63;;;25.88;49.77
40850;BME280;26571;41.610;25.380;2023-06-04T09:42:50;98730.03;;;25.87;49.29
40850;BME280;26571;41.610;25.380;2023-06-04T09:45:33;98724.97;;;25.36;50.83
40850;BME280;26571;41.610;25.380;2023-06-04T09:48:01;98732.13;;;25.52;51.47
40850;BME280;26571;41.610;25.380;2023-06-04T09:50:27;98732.09;;;25.47;50.83
40850;BME280;26571;41.610;25.380;2023-06-04T09:52:53;98732.69;;;25.55;51.70
40850;BME280;26571;41.610;25.380;2023-06-04T09:55:19;98725.22;;;25.62;51.46
40850;BME280;26571;41.610;25.380;2023-06-04T09:57:47;98731.44;;;25.67;50.80
40850;BME280;26571;41.610;25.380;2023-06-04T10:00:20;98730.84;;;25.60;50.34
40850;BME280;26571;41.610;25.380;2023-06-04T10:02:46;98705.47;;;25.56;49.51
40850;BME280;26571;41.610;25.380;2023-06-04T10:05:13;98727.59;;;25.58;51.43
40850;BME280;26571;41.610;25.380;2023-06-04T10:07:40;98737.84;;;25.56;50.85
40850;BME280;26571;41.610;25.380;2023-06-04T10:10:08;98709.63;;;25.37;50.59
40850;BME280;26571;41.610;25.380;2023-06-04T10:12:37;98736.06;;;25.40;51.29
40850;BME280;26571;41.610;25.380;2023-06-04T10:15:05;98733.72;;;25.48;51.34
40850;BME280;26571;41.610;25.380;2023-06-04T10:17:33;98736.72;;;25.52;52.04
40850;BME280;26571;41.610;25.380;2023-06-04T10:20:01;98736.44;;;25.53;51.75
40850;BME280;26571;41.610;25.380;2023-06-04T10:22:29;98736.41;;;25.48;51.50
40850;BME280;26571;41.610;25.380;2023-06-04T10:24:55;98728.63;;;25.52;52.07
40850;BME280;26571;41.610;25.380;2023-06-04T10:27:20;98726.25;;;25.61;52.35
40850;BME280;26571;41.610;25.380;2023-06-04T10:29:47;98728.28;;;25.75;52.32
40850;BME280;26571;41.610;25.380;2023-06-04T10:32:13;98723.50;;;25.83;51.96
40850;BME280;26571;41.610;25.380;2023-06-04T10:34:38;98733.75;;;25.86;51.97
40850;BME280;26571;41.610;25.380;2023-06-04T10:37:04;98714.94;;;25.91;51.36
40850;BME280;26571;41.610;25.380;2023-06-04T10:39:31;98722.38;;;26.11;50.99
40850;BME280;26571;41.610;25.380;2023-06-04T10:44:24;98711.88;;;26.19;49.70
40850;BME280;26571;41.610;25.380;2023-06-04T10:46:49;98719.88;;;26.04;50.21
40850;BME280;26571;41.610;25.380;2023-06-04T10:49:28;98711.41;;;25.58;50.96
40850;BME280;26571;41.610;25.380;2023-06-04T10:51:54;98716.16;;;25.46;52.56
40850;BME280;26571;41.610;25.380;2023-06-04T10:54:29;98708.56;;;25.38;54.48
40850;BME280;26571;41.610;25.380;2023-06-04T10:56:55;98713.38;;;25.36;53.22
40850;BME280;26571;41.610;25.380;2023-06-04T10:59:21;98712.19;;;25.21;54.00
40850;BME280;26571;41.610;25.380;2023-06-04T11:01:47;98713.97;;;25.16;54.53
40850;BME280;26571;41.610;25.380;2023-06-04T11:04:23;98720.22;;;25.16;55.36
40850;BME280;26571;41.610;25.380;2023-06-04T11:07:00;98714.34;;;25.24;55.96
40850;BME280;26571;41.610;25.380;2023-06-04T11:09:27;98711.91;;;25.23;54.74
40850;BME280;26571;41.610;25.380;2023-06-04T11:11:58;98717.66;;;25.32;54.93
40850;BME280;26571;41.610;25.380;2023-06-04T11:14:24;98713.16;;;25.15;54.99
40850;BME280;26571;41.610;25.380;2023-06-04T11:16:50;98710.19;;;24.90;55.57
40850;BME280;26571;41.610;25.380;2023-06-04T11:19:15;98706.88;;;24.83;56.60
40850;BME280;26571;41.610;25.380;2023-06-04T11:21:41;98708.44;;;24.79;55.67
40850;BME280;26571;41.610;25.380;2023-06-04T11:24:06;98707.13;;;24.59;58.08
40850;BME280;26571;41.610;25.380;2023-06-04T11:26:36;98708.69;;;24.55;57.74
40850;BME280;26571;41.610;25.380;2023-06-04T11:29:06;98699.59;;;24.61;58.41
40850;BME280;26571;41.610;25.380;2023-06-04T11:31:45;98701.88;;;24.69;58.42
40850;BME280;26571;41.610;25.380;2023-06-04T11:34:22;98709.47;;;24.72;57.38
40850;BME280;26571;41.610;25.380;2023-06-04T11:36:47;98693.25;;;24.67;58.00
40850;BME280;26571;41.610;25.380;2023-06-04T11:39:14;98697.66;;;24.79;57.21
40850;BME280;26571;41.610;25.380;2023-06-04T11:41:40;98708.06;;;24.92;56.34
40850;BME280;26571;41.610;25.380;2023-06-04T11:44:07;98708.94;;;24.97;56.06
40850;BME280;26571;41.610;25.380;2023-06-04T11:46:32;98672.34;;;24.53;56.89
40850;BME280;26571;41.610;25.380;2023-06-04T11:48:58;98691.59;;;24.66;57.64
40850;BME280;26571;41.610;25.380;2023-06-04T11:51:25;98666.63;;;24.49;56.93
40850;BME280;26571;41.610;25.380;2023-06-04T11:53:51;98699.25;;;24.74;57.92
40850;BME280;26571;41.610;25.380;2023-06-04T11:56:17;98699.22;;;24.96;57.55
40850;BME280;26571;41.610;25.380;2023-06-04T11:58:43;98707.19;;;25.08;56.35
40850;BME280;26571;41.610;25.380;2023-06-04T12:01:11;98702.69;;;24.92;56.04
40850;BME280;26571;41.610;25.380;2023-06-04T12:03:38;98709.94;;;25.13;55.09
40850;BME280;26571;41.610;25.380;2023-06-04T12:06:30;98712.19;;;25.21;55.05
40850;BME280;26571;41.610;25.380;2023-06-04T12:08:55;98706.97;;;25.42;55.94
40850;BME280;26571;41.610;25.380;2023-06-04T12:11:24;98709.34;;;25.70;53.12
40850;BME280;26571;41.610;25.380;2023-06-04T12:13:52;98708.84;;;25.73;53.32
40850;BME280;26571;41.610;25.380;2023-06-04T12:16:17;98709.75;;;25.84;55.03
40850;BME280;26571;41.610;25.380;2023-06-04T12:18:42;98720.78;;;25.77;53.53
40850;BME280;26571;41.610;25.380;2023-06-04T12:21:24;98716.50;;;25.22;56.42
40850;BME280;26571;41.610;25.380;2023-06-04T12:24:13;98726.72;;;24.55;58.75
40850;BME280;26571;41.610;25.380;2023-06-04T12:26:40;98725.22;;;24.25;59.95
40850;BME280;26571;41.610;25.380;2023-06-04T12:29:16;98722.38;;;24.15;61.49
40850;BME280;26571;41.610;25.380;2023-06-04T12:31:43;98723.63;;;23.90;61.97
40850;BME280;26571;41.610;25.380;2023-06-04T12:34:09;98724.22;;;23.76;62.80
40850;BME280;26571;41.610;25.380;2023-06-04T12:36:36;98716.94;;;23.59;62.86
40850;BME280;26571;41.610;25.380;2023-06-04T12:39:03;98721.53;;;23.47;63.65
40850;BME280;26571;41.610;25.380;2023-06-04T12:41:29;98719.91;;;23.46;64.62
40850;BME280;26571;41.610;25.380;2023-06-04T12:43:56;98734.72;;;23.32;64.70
40850;BME280;26571;41.610;25.380;2023-06-04T12:46:22;98727.50;;;23.32;65.84
40850;BME280;26571;41.610;25.380;2023-06-04T12:48:49;98734.34;;;23.40;65.65
40850;BME280;26571;41.610;25.380;2023-06-04T12:51:14;98721.78;;;23.45;64.59
40850;BME280;26571;41.610;25.380;2023-06-04T12:53:41;98731.72;;;23.45;62.83